Time;durP1;ratioP1;P1;durP2;ratioP2;P2;SDS_P1;SDS_P2;PMS_P1;PMS_P2;Temp;Humidity;BMP_temperature;BMP_pressure;BME280_temperature;BME280_humidity;BME280_pressure;Samples;Min_cycle;Max_cycle;Signal;HPM_P1;HPM_P2
2023/03/11 00:00:15;;;;;;;4.70;2.90;;;;;;;2.70;75.58;98541.91;4991043;28;20054;-79
2023/03/11 00:02:46;;;;;;;7.75;3.22;;;;;;;2.72;75.93;98537.47;4991618;28;20057;-79
2023/03/11 00:05:27;;;;;;;5.60;2.47;;;;;;;2.71;75.21;98541.84;4991042;28;20058;-80
2023/03/11 00:07:54;;;;;;;3.33;2.30;;;;;;;2.71;75.58;98544.44;4990840;28;20054;-79
2023/03/11 00:10:36;;;;;;;4.07;2.88;;;;;;;2.71;75.96;98552.22;4989950;28;20050;-80
2023/03/11 00:13:04;;;;;;;5.72;2.85;;;;;;;2.73;75.59;98559.97;4991286;28;20061;-79
2023/03/11 00:15:32;;;;;;;7.50;2.50;;;;;;;2.72;76.02;98564.31;4990554;28;20060;-79
2023/03/11 00:17:59;;;;;;;3.63;2.38;;;;;;;2.72;76.02;98574.69;4990682;28;20443;-79
2023/03/11 00:20:32;;;;;;;5.80;2.90;;;;;;;2.72;75.93;98582.50;4990839;28;20134;-79
2023/03/11 00:22:59;;;;;;;4.82;2.97;;;;;;;2.73;76.22;98591.16;4973900;28;20172;-80
2023/03/11 00:25:29;;;;;;;4.70;2.88;;;;;;;2.72;75.48;98587.69;4990574;28;20050;-80
2023/03/11 00:27:56;;;;;;;8.80;3.00;;;;;;;2.72;75.91;98592.88;4990976;28;20085;-78
2023/03/11 00:30:23;;;;;;;7.18;2.65;;;;;;;2.71;75.69;98601.59;4990996;28;20102;-80
2023/03/11 00:32:52;;;;;;;5.20;2.67;;;;;;;2.71;76.01;98603.34;4991262;28;20089;-80
2023/03/11 00:35:24;;;;;;;4.13;2.70;;;;;;;2.71;76.09;98614.59;4990894;28;20065;-79
2023/03/11 00:37:57;;;;;;;3.47;1.80;;;;;;;2.71;75.79;98612.00;4972921;28;20074;-79
2023/03/11 00:40:26;;;;;;;6.88;2.70;;;;;;;2.72;76.38;98618.00;4991871;28;20145;-79
2023/03/11 00:42:53;;;;;;;5.85;3.00;;;;;;;2.72;75.95;98608.47;4994914;28;20065;-79
2023/03/11 00:45:19;;;;;;;4.65;2.45;;;;;;;2.72;75.73;98618.88;4977194;28;20059;-79
2023/03/11 00:47:46;;;;;;;3.95;2.65;;;;;;;2.72;75.55;98631.00;4964472;28;20105;-79
2023/03/11 00:50:20;;;;;;;6.00;2.65;;;;;;;2.70;75.10;98625.88;4975137;28;20050;-79
2023/03/11 00:52:48;;;;;;;4.57;2.40;;;;;;;2.70;75.43;98632.84;4975361;28;20065;-79
2023/03/11 00:55:27;;;;;;;3.88;2.45;;;;;;;2.68;75.00;98625.13;4975037;28;20050;-79
2023/03/11 00:57:59;;;;;;;3.50;2.40;;;;;;;2.65;74.81;98633.03;4974819;28;20047;-79
2023/03/11 01:00:27;;;;;;;4.03;2.65;;;;;;;2.63;74.87;98634.88;4975164;28;20046;-79
2023/03/11 01:02:54;;;;;;;3.67;2.05;;;;;;;2.60;74.87;98637.59;4970274;28;20054;-80
2023/03/11 01:05:24;;;;;;;2.65;2.08;;;;;;;2.57;74.76;98635.09;5066755;22;20045;-80
2023/03/11 01:07:51;;;;;;;3.58;2.20;;;;;;;2.54;75.20;98638.69;5021939;28;20420;-80
2023/03/11 01:10:20;;;;;;;3.10;1.85;;;;;;;2.52;75.31;98637.06;5023178;28;20053;-79
2023/03/11 01:12:47;;;;;;;3.85;2.13;;;;;;;2.51;75.58;98637.97;5004221;28;20053;-80
2023/03/11 01:15:19;;;;;;;4.95;2.33;;;;;;;2.47;74.95;98658.88;5005189;28;20046;-80
2023/03/11 01:17:45;;;;;;;2.10;1.80;;;;;;;2.48;75.31;98663.16;5009303;28;20050;-79
2023/03/11 01:20:12;;;;;;;3.88;2.15;;;;;;;2.46;74.97;98670.19;4975406;28;20061;-80
2023/03/11 01:22:39;;;;;;;4.00;2.17;;;;;;;2.43;74.97;98667.69;4993062;28;20144;-80
2023/03/11 01:25:06;;;;;;;2.88;2.05;;;;;;;2.42;75.71;98673.81;4992089;28;20054;-80
2023/03/11 01:27:32;;;;;;;3.75;2.05;;;;;;;2.41;75.58;98677.31;4990206;28;20527;-80
2023/03/11 01:29:58;;;;;;;4.43;2.17;;;;;;;2.42;76.06;98686.78;5011971;28;20077;-80
2023/03/11 01:32:27;;;;;;;3.72;2.05;;;;;;;2.42;76.27;98692.00;5012024;28;20050;-80
2023/03/11 01:34:53;;;;;;;4.90;2.25;;;;;;;2.45;76.22;98697.06;4974701;28;20129;-80
2023/03/11 01:37:20;;;;;;;3.70;1.90;;;;;;;2.46;76.63;98693.56;4992284;28;20062;-80
2023/03/11 01:39:46;;;;;;;4.38;1.85;;;;;;;2.48;76.58;98699.53;4992628;28;20496;-80
2023/03/11 01:42:13;;;;;;;2.22;1.88;;;;;;;2.52;76.28;98704.59;5008400;28;20076;-80
2023/03/11 01:44:39;;;;;;;3.72;2.10;;;;;;;2.53;76.63;98699.34;5011323;28;20526;-80
2023/03/11 01:47:08;;;;;;;2.47;1.73;;;;;;;2.54;75.67;98708.81;4990634;28;20054;-80
2023/03/11 01:49:40;;;;;;;4.47;1.77;;;;;;;2.57;76.04;98707.84;5011402;28;20416;-80
2023/03/11 01:52:07;;;;;;;4.40;1.30;;;;;;;2.60;76.34;98707.72;4994435;28;20107;-80
2023/03/11 01:54:40;;;;;;;3.40;2.00;;;;;;;2.59;76.12;98708.66;5002538;28;20086;-80
2023/03/11 01:57:11;;;;;;;3.35;1.90;;;;;;;2.60;75.77;98711.19;4991776;28;20077;-80
2023/03/11 01:59:43;;;;;;;4.70;1.80;;;;;;;2.63;76.01;98715.41;4975032;28;20054;-81
2023/03/11 02:02:19;;;;;;;3.17;1.88;;;;;;;2.65;75.57;98712.75;4974630;28;20054;-80
2023/03/11 02:04:46;;;;;;;6.00;1.58;;;;;;;2.66;75.89;98711.84;4991690;28;20085;-80
2023/03/11 02:07:13;;;;;;;2.22;1.63;;;;;;;2.67;76.19;98716.13;4991955;28;20060;-81
2023/03/11 02:09:40;;;;;;;2.30;1.33;;;;;;;2.66;75.97;98715.28;4974805;28;20054;-80
2023/03/11 02:12:10;;;;;;;4.43;1.90;;;;;;;2.65;75.67;98718.78;4991912;28;20062;-80
2023/03/11 02:14:40;;;;;;;5.53;1.73;;;;;;;2.66;75.07;98728.28;4974515;28;20050;-79
2023/03/11 02:17:07;;;;;;;5.15;2.10;;;;;;;2.66;75.64;98741.28;4991538;28;20050;-81
2023/03/11 02:19:34;;;;;;;7.53;2.00;;;;;;;2.66;75.67;98730.03;4991692;28;20054;-79
2023/03/11 02:22:01;;;;;;;4.80;1.95;;;;;;;2.64;76.12;98732.69;4991747;28;20062;-80
2023/03/11 02:24:44;;;;;;;4.65;1.75;;;;;;;2.63;74.61;98745.72;4991620;28;20054;-80
2023/03/11 02:27:15;;;;;;;3.95;2.15;;;;;;;2.63;75.23;98744.00;4991426;28;20058;-81
2023/03/11 02:29:43;;;;;;;5.97;2.00;;;;;;;2.62;75.54;98742.31;4974604;28;20054;-80
2023/03/11 02:32:10;;;;;;;5.25;2.20;;;;;;;2.63;75.84;98740.53;4991860;28;20065;-80
2023/03/11 02:34:38;;;;;;;4.18;2.53;;;;;;;2.62;75.87;98738.84;4991481;28;20719;-80
2023/03/11 02:37:07;;;;;;;4.57;1.70;;;;;;;2.61;75.85;98740.59;4990791;28;20716;-80
2023/03/11 02:39:36;;;;;;;3.70;1.90;;;;;;;2.60;75.55;98738.91;4991384;28;20058;-80
2023/03/11 02:42:17;;;;;;;5.40;1.98;;;;;;;2.57;74.27;98745.06;4991338;28;20520;-81
2023/03/11 02:44:47;;;;;;;3.10;1.60;;;;;;;2.56;74.78;98746.00;4991153;28;20058;-80
2023/03/11 02:47:15;;;;;;;1.85;1.40;;;;;;;2.56;75.07;98755.53;4991007;28;20058;-80
2023/03/11 02:49:41;;;;;;;6.35;1.30;;;;;;;2.53;75.26;98751.31;4991223;28;20081;-81
2023/03/11 02:52:08;;;;;;;7.07;1.75;;;;;;;2.51;75.09;98750.53;4991333;28;20054;-80
2023/03/11 02:54:34;;;;;;;3.88;1.65;;;;;;;2.48;74.49;98745.44;4991390;28;20050;-80
2023/03/11 02:57:01;;;;;;;4.53;1.60;;;;;;;2.44;75.05;98747.31;4990402;28;20047;-80
2023/03/11 02:59:27;;;;;;;5.78;1.70;;;;;;;2.39;74.82;98751.00;4991217;28;20054;-80
2023/03/11 03:01:53;;;;;;;4.43;1.48;;;;;;;2.38;74.71;98757.94;4992541;28;20456;-80
2023/03/11 03:04:20;;;;;;;5.82;1.30;;;;;;;2.35;74.61;98750.28;5007860;28;20085;-80
2023/03/11 03:06:46;;;;;;;8.07;1.73;;;;;;;2.33;74.73;98763.31;5000824;28;20427;-80
2023/03/11 03:09:13;;;;;;;4.03;1.25;;;;;;;2.30;74.62;98757.41;5010571;28;20132;-81
2023/03/11 03:11:39;;;;;;;4.55;1.40;;;;;;;2.28;74.86;98760.06;5010368;28;20107;-80
2023/03/11 03:14:05;;;;;;;8.52;1.63;;;;;;;2.26;74.77;98767.06;5010602;28;20049;-80
2023/03/11 03:16:32;;;;;;;6.22;1.70;;;;;;;2.25;75.21;98769.72;5009971;28;20480;-80
2023/03/11 03:18:58;;;;;;;3.80;1.30;;;;;;;2.24;74.82;98765.44;4992795;28;20070;-80
2023/03/11 03:21:25;;;;;;;5.30;1.40;;;;;;;2.22;75.32;98768.91;5010453;28;20338;-80
2023/03/11 03:23:51;;;;;;;9.15;1.80;;;;;;;2.24;75.80;98778.44;5010073;28;20496;-80
2023/03/11 03:26:17;;;;;;;1.67;1.10;;;;;;;2.25;75.54;98774.91;5002126;28;20081;-80
2023/03/11 03:28:44;;;;;;;6.53;1.70;;;;;;;2.25;75.38;98787.91;4990593;28;20058;-80
2023/03/11 03:31:10;;;;;;;2.38;1.30;;;;;;;2.25;75.10;98793.94;4990541;28;20493;-80
2023/03/11 03:33:37;;;;;;;2.92;1.30;;;;;;;2.24;74.80;98783.63;4990501;28;20062;-80
2023/03/11 03:36:09;;;;;;;5.75;1.38;;;;;;;2.22;73.89;98789.69;4990449;28;20046;-79
2023/03/11 03:38:35;;;;;;;3.47;2.10;;;;;;;2.21;74.86;98788.00;4972894;28;20054;-80
2023/03/11 03:41:02;;;;;;;2.17;1.45;;;;;;;2.19;74.84;98792.44;4990227;28;20100;-80
2023/03/11 03:43:28;;;;;;;6.00;1.75;;;;;;;2.17;74.46;98796.81;4988713;28;20100;-81
2023/03/11 03:45:57;;;;;;;3.70;1.52;;;;;;;2.15;74.62;98809.03;4989879;28;20410;-80
2023/03/11 03:48:23;;;;;;;6.07;1.38;;;;;;;2.15;74.59;98810.75;4989771;28;20560;-80
2023/03/11 03:50:50;;;;;;;2.75;1.40;;;;;;;2.14;75.21;98811.69;4990439;28;20108;-80
2023/03/11 03:53:17;;;;;;;7.10;1.67;;;;;;;2.13;75.32;98817.78;4990263;28;20460;-81
2023/03/11 03:55:44;;;;;;;4.97;1.35;;;;;;;2.13;75.51;98821.19;4989565;28;20133;-80
2023/03/11 03:58:10;;;;;;;5.68;1.52;;;;;;;2.13;75.31;98833.34;4989709;28;20049;-80
2023/03/11 04:00:38;;;;;;;5.80;1.35;;;;;;;2.14;75.65;98822.06;4989993;28;20090;-81
2023/03/11 04:03:05;;;;;;;8.25;1.73;;;;;;;2.15;75.42;98828.94;4990150;28;20101;-80
2023/03/11 04:05:32;;;;;;;3.15;1.63;;;;;;;2.17;75.22;98832.34;4989760;28;20057;-80
2023/03/11 04:07:59;;;;;;;5.07;2.10;;;;;;;2.18;75.68;98829.69;4989683;28;20054;-80
2023/03/11 04:10:25;;;;;;;3.38;1.17;;;;;;;2.19;75.26;98833.97;4990125;28;20120;-81
2023/03/11 04:12:52;;;;;;;5.10;1.38;;;;;;;2.22;75.83;98843.41;4989981;28;20194;-79
2023/03/11 04:15:18;;;;;;;7.82;2.03;;;;;;;2.24;75.52;98843.34;4990015;28;20058;-80
2023/03/11 04:17:45;;;;;;;5.00;1.55;;;;;;;2.24;75.94;98841.56;4993716;28;20058;-80
2023/03/11 04:20:11;;;;;;;7.78;1.30;;;;;;;2.25;75.43;98839.84;4994043;28;20098;-80
2023/03/11 04:22:37;;;;;;;4.95;1.80;;;;;;;2.26;75.13;98846.72;4994169;28;20054;-80
2023/03/11 04:25:04;;;;;;;4.68;1.50;;;;;;;2.26;75.06;98855.38;4975956;28;20337;-80
2023/03/11 04:27:30;;;;;;;6.28;1.75;;;;;;;2.25;74.80;98856.28;4999931;28;20112;-80
2023/03/11 04:29:57;;;;;;;2.90;1.27;;;;;;;2.24;74.46;98861.53;5008169;28;20050;-80
2023/03/11 04:32:23;;;;;;;9.35;1.48;;;;;;;2.21;74.35;98860.72;5008961;28;20050;-79
2023/03/11 04:34:50;;;;;;;5.40;1.50;;;;;;;2.17;73.83;98859.13;5012917;28;20148;-80
2023/03/11 04:37:16;;;;;;;6.85;1.92;;;;;;;2.15;74.43;98860.97;5010001;28;20100;-80
2023/03/11 04:39:42;;;;;;;3.35;1.50;;;;;;;2.13;74.47;98865.34;5011370;28;20061;-80
2023/03/11 04:42:09;;;;;;;4.50;1.23;;;;;;;2.13;74.47;98867.94;5012804;28;20049;-80
2023/03/11 04:44:35;;;;;;;3.92;1.05;;;;;;;2.11;73.79;98874.94;4987001;28;20058;-81
2023/03/11 04:47:02;;;;;;;2.00;1.00;;;;;;;2.08;73.71;98880.25;5012565;28;20058;-80
2023/03/11 04:49:28;;;;;;;4.20;1.60;;;;;;;2.05;73.40;98875.16;5013289;28;20131;-81
2023/03/11 04:51:55;;;;;;;7.53;2.25;;;;;;;2.02;73.28;98889.09;5013247;28;20054;-80
2023/03/11 04:54:21;;;;;;;4.07;1.27;;;;;;;1.98;73.58;98894.47;5011731;28;20054;-80
2023/03/11 04:56:48;;;;;;;5.13;1.25;;;;;;;1.94;73.26;98888.53;4994812;28;20165;-80
2023/03/11 04:59:14;;;;;;;2.83;1.42;;;;;;;1.90;72.98;98903.38;5013109;28;20054;-80
2023/03/11 05:01:40;;;;;;;3.33;1.52;;;;;;;1.85;72.78;98905.28;5000770;28;20062;-80
2023/03/11 05:04:07;;;;;;;6.35;1.30;;;;;;;1.82;72.86;98906.22;4992975;28;20459;-80
2023/03/11 05:06:33;;;;;;;3.72;0.90;;;;;;;1.76;72.96;98905.59;4974966;28;20049;-79
2023/03/11 05:09:00;;;;;;;2.58;1.20;;;;;;;1.73;72.91;98905.69;4975858;28;20058;-79
2023/03/11 05:11:26;;;;;;;6.63;1.15;;;;;;;1.68;72.79;98904.09;4993045;28;20472;-79
2023/03/11 05:13:53;;;;;;;5.47;1.38;;;;;;;1.62;72.34;98906.94;4993176;28;20460;-79
2023/03/11 05:16:19;;;;;;;5.07;1.23;;;;;;;1.59;72.49;98907.03;4992953;28;20054;-79
2023/03/11 05:18:45;;;;;;;3.20;1.30;;;;;;;1.55;72.81;98915.81;4992629;28;20046;-79
2023/03/11 05:21:12;;;;;;;1.48;1.23;;;;;;;1.51;72.56;98916.81;4993074;28;20077;-79
2023/03/11 05:23:38;;;;;;;2.65;0.85;;;;;;;1.46;72.67;98924.72;4992548;28;20472;-79
2023/03/11 05:26:05;;;;;;;6.40;1.30;;;;;;;1.42;72.68;98931.75;4999011;28;20574;-79
2023/03/11 05:28:31;;;;;;;7.47;1.83;;;;;;;1.38;72.46;98934.53;5011769;28;20053;-79
2023/03/11 05:30:58;;;;;;;2.70;1.27;;;;;;;1.34;72.57;98930.34;5008407;28;20054;-80
2023/03/11 05:33:24;;;;;;;2.38;1.13;;;;;;;1.32;72.75;98940.75;5007926;28;20141;-80
2023/03/11 05:35:51;;;;;;;2.50;1.20;;;;;;;1.29;72.61;98938.25;5008751;28;20744;-79
2023/03/11 05:38:17;;;;;;;3.75;1.20;;;;;;;1.26;72.36;98943.53;5004904;28;20057;-80
2023/03/11 05:40:44;;;;;;;4.50;1.15;;;;;;;1.23;72.78;98952.25;5011502;28;20737;-80
2023/03/11 05:43:10;;;;;;;6.53;1.35;;;;;;;1.22;72.63;98954.88;4994588;28;20057;-80
2023/03/11 05:45:37;;;;;;;6.68;1.38;;;;;;;1.19;72.86;98958.44;5010269;28;20054;-80
2023/03/11 05:48:03;;;;;;;3.45;1.50;;;;;;;1.16;72.78;98959.38;5004755;28;20054;-80
2023/03/11 05:50:30;;;;;;;3.70;1.30;;;;;;;1.14;72.11;98957.72;5012165;28;20061;-80
2023/03/11 05:52:56;;;;;;;6.20;1.52;;;;;;;1.10;72.51;98953.53;5012131;28;20116;-80
2023/03/11 05:55:22;;;;;;;3.97;1.63;;;;;;;1.09;72.55;98962.22;5010246;28;20108;-80
2023/03/11 05:57:50;;;;;;;5.03;1.40;;;;;;;1.05;72.61;98958.88;5011688;28;20065;-80
2023/03/11 06:00:19;;;;;;;3.80;1.70;;;;;;;1.03;72.90;98958.91;5006160;28;20172;-80
2023/03/11 06:02:45;;;;;;;4.18;1.52;;;;;;;1.00;72.56;98966.78;4974340;28;20089;-80
2023/03/11 06:05:12;;;;;;;4.22;1.70;;;;;;;0.98;72.96;98965.13;4991423;28;20050;-80
2023/03/11 06:07:39;;;;;;;4.05;1.65;;;;;;;0.96;73.03;98964.31;4991439;28;20055;-79
2023/03/11 06:10:06;;;;;;;7.03;1.95;;;;;;;0.94;73.23;98964.38;4991982;28;20421;-80
2023/03/11 06:12:34;;;;;;;5.45;1.73;;;;;;;0.95;73.36;98973.00;4974602;28;20054;-80
2023/03/11 06:15:00;;;;;;;4.43;1.58;;;;;;;0.95;73.16;98983.34;4998502;28;20046;-80
2023/03/11 06:17:27;;;;;;;2.15;1.20;;;;;;;0.94;73.04;98984.25;5001889;28;20057;-80
2023/03/11 06:19:55;;;;;;;5.63;1.55;;;;;;;0.94;73.35;98990.31;4972620;28;20481;-80
2023/03/11 06:22:22;;;;;;;6.20;1.52;;;;;;;0.96;73.13;98992.81;4972200;28;20097;-80
2023/03/11 06:24:48;;;;;;;3.28;2.35;;;;;;;0.95;72.83;98991.13;4972179;28;20086;-79
2023/03/11 06:27:15;;;;;;;9.30;1.52;;;;;;;0.96;73.24;98995.41;4971899;28;20051;-81
2023/03/11 06:29:41;;;;;;;5.65;1.38;;;;;;;0.95;72.66;98998.91;4972276;28;20113;-80
2023/03/11 06:32:07;;;;;;;3.90;1.52;;;;;;;0.96;73.19;99004.03;4975332;28;20046;-80
2023/03/11 06:34:34;;;;;;;2.53;1.52;;;;;;;0.97;73.15;99012.69;4991583;28;20137;-79
2023/03/11 06:37:00;;;;;;;8.40;1.85;;;;;;;0.95;72.93;99011.88;4976249;28;20505;-81
2023/03/11 06:39:27;;;;;;;4.43;1.38;;;;;;;0.96;73.53;99013.56;5002399;28;20054;-80
2023/03/11 06:41:53;;;;;;;5.65;1.48;;;;;;;0.96;73.41;99009.22;5002391;28;20077;-79
2023/03/11 06:44:19;;;;;;;6.32;1.70;;;;;;;0.96;72.92;99014.41;5010781;28;20058;-80
2023/03/11 06:46:46;;;;;;;5.60;1.70;;;;;;;0.95;73.13;99017.03;5010144;28;20134;-80
2023/03/11 06:49:12;;;;;;;2.58;1.50;;;;;;;0.95;73.16;99017.03;5002221;28;20101;-80
2023/03/11 06:51:39;;;;;;;6.50;1.70;;;;;;;0.95;73.36;99020.50;5008315;28;20065;-79
2023/03/11 06:54:06;;;;;;;4.30;1.55;;;;;;;0.97;73.59;99036.00;4993298;28;20057;-79
2023/03/11 06:56:32;;;;;;;3.15;1.40;;;;;;;0.97;73.77;99026.47;5010076;28;20492;-80
2023/03/11 06:58:59;;;;;;;4.60;1.50;;;;;;;1.00;73.84;99036.75;5010688;28;20057;-80
2023/03/11 07:01:26;;;;;;;3.78;1.30;;;;;;;1.02;73.98;99041.91;5010447;28;20054;-80
2023/03/11 07:09:03;;;;;;;5.60;1.40;;;;;;;1.08;73.77;99057.25;5004284;28;20385;-78
2023/03/11 07:11:29;;;;;;;6.75;1.60;;;;;;;1.10;74.00;99057.22;5011394;28;20050;-79
2023/03/11 07:13:56;;;;;;;7.40;1.13;;;;;;;1.12;73.91;99058.03;5011467;28;20515;-79
2023/03/11 07:16:25;;;;;;;5.97;1.23;;;;;;;1.14;73.38;99062.28;5010771;28;20107;-80
2023/03/11 07:18:54;;;;;;;4.55;1.55;;;;;;;1.17;73.72;99071.72;5010913;28;20058;-79
2023/03/11 07:21:21;;;;;;;6.50;1.30;;;;;;;1.19;73.72;99082.03;5010821;28;20434;-80
2023/03/11 07:23:53;;;;;;;8.85;1.58;;;;;;;1.20;72.89;99082.00;5011172;28;20045;-79
2023/03/11 07:26:21;;;;;;;1.77;1.33;;;;;;;1.23;74.20;99087.06;5010967;28;20045;-79
2023/03/11 07:28:48;;;;;;;3.88;1.38;;;;;;;1.26;73.72;99083.53;5010533;28;20335;-79
2023/03/11 07:31:17;;;;;;;6.95;1.70;;;;;;;1.27;74.11;99088.69;5009593;28;20042;-79
2023/03/11 07:33:45;;;;;;;5.32;1.50;;;;;;;1.30;73.98;99091.19;5011174;28;20049;-79
2023/03/11 07:36:17;;;;;;;4.00;1.45;;;;;;;1.34;74.04;99097.13;5010756;28;20049;-79
2023/03/11 07:38:45;;;;;;;3.63;1.45;;;;;;;1.36;74.04;99104.84;5010485;28;20132;-79
2023/03/11 07:41:12;;;;;;;6.88;1.63;;;;;;;1.39;74.12;99110.78;5010904;28;20530;-79
2023/03/11 07:43:41;;;;;;;4.50;1.33;;;;;;;1.42;74.02;99108.13;5010594;28;20042;-80
2023/03/11 07:46:11;;;;;;;6.55;1.30;;;;;;;1.45;73.73;99111.53;5010246;28;20437;-79
2023/03/11 07:48:39;;;;;;;4.55;1.27;;;;;;;1.50;73.87;99117.44;5009007;28;20498;-80
2023/03/11 07:51:11;;;;;;;5.75;1.52;;;;;;;1.52;74.19;99116.47;5006166;28;20050;-79
2023/03/11 07:53:41;;;;;;;7.88;1.90;;;;;;;1.57;74.56;99116.31;5005559;28;20042;-78
2023/03/11 07:56:09;;;;;;;5.13;2.10;;;;;;;1.61;73.55;99122.28;5009521;28;20045;-79
2023/03/11 07:58:36;;;;;;;3.28;1.77;;;;;;;1.65;74.74;99121.31;5009424;28;20061;-79
2023/03/11 08:01:05;;;;;;;5.15;2.03;;;;;;;1.68;74.18;99132.41;5010497;28;20046;-79
2023/03/11 08:03:33;;;;;;;4.75;1.90;;;;;;;1.74;73.95;99138.31;5010270;28;20084;-79
2023/03/11 08:06:00;;;;;;;8.02;2.08;;;;;;;1.78;74.23;99137.31;5008723;28;20100;-79
2023/03/11 08:08:27;;;;;;;4.70;1.80;;;;;;;1.82;73.79;99138.94;5008328;28;20503;-79
2023/03/11 08:10:53;;;;;;;5.65;1.75;;;;;;;1.87;74.20;99146.59;5010391;28;20049;-79
2023/03/11 08:13:20;;;;;;;6.28;2.08;;;;;;;1.90;74.28;99146.47;5010568;28;20065;-80
2023/03/11 08:15:46;;;;;;;4.38;1.60;;;;;;;1.94;73.99;99146.34;5008536;28;20049;-80
2023/03/11 08:18:12;;;;;;;4.25;1.50;;;;;;;1.99;73.96;99155.72;5007896;28;20466;-78
2023/03/11 08:20:39;;;;;;;6.72;1.55;;;;;;;2.02;73.80;99161.66;5010159;28;20104;-79
2023/03/11 08:23:05;;;;;;;4.93;1.63;;;;;;;2.06;74.05;99158.06;5010167;28;20096;-79
2023/03/11 08:25:32;;;;;;;6.35;1.75;;;;;;;2.11;74.16;99167.47;5010131;28;20050;-79
2023/03/11 08:27:58;;;;;;;6.30;1.70;;;;;;;2.14;74.32;99175.16;5010230;28;20454;-79
2023/03/11 08:30:25;;;;;;;4.80;1.95;;;;;;;2.19;73.84;99181.06;5010255;28;20467;-79
2023/03/11 08:32:51;;;;;;;6.70;1.80;;;;;;;2.22;73.94;99181.81;5009235;28;20053;-79
2023/03/11 08:35:21;;;;;;;5.13;1.75;;;;;;;2.25;73.71;99187.81;5004299;28;20052;-79
2023/03/11 08:37:47;;;;;;;7.88;2.75;;;;;;;2.29;74.27;99186.81;5009059;28;20053;-80
2023/03/11 08:40:16;;;;;;;5.65;2.00;;;;;;;2.32;74.37;99184.13;5009898;28;20594;-80
2023/03/11 08:42:42;;;;;;;5.53;1.40;;;;;;;2.37;74.19;99186.56;5009557;28;20554;-79
2023/03/11 08:45:11;;;;;;;5.65;1.70;;;;;;;2.40;73.63;99186.47;5009368;28;20454;-79
2023/03/11 08:47:38;;;;;;;7.07;1.60;;;;;;;2.44;74.17;99188.91;5009320;28;20053;-80
2023/03/11 08:50:08;;;;;;;3.80;1.77;;;;;;;2.48;74.42;99195.69;5009801;28;20050;-79
2023/03/11 08:52:34;;;;;;;2.53;1.65;;;;;;;2.54;74.09;99194.66;5010009;28;20062;-79
2023/03/11 08:55:03;;;;;;;7.68;1.92;;;;;;;2.59;74.52;99204.91;5009385;28;20069;-80
2023/03/11 08:57:31;;;;;;;6.22;1.85;;;;;;;2.64;74.45;99205.59;5009788;28;20105;-79
2023/03/11 09:00:00;;;;;;;4.53;1.98;;;;;;;2.67;73.97;99204.63;5009596;28;20064;-80
2023/03/11 09:02:26;;;;;;;3.63;1.83;;;;;;;2.73;74.72;99207.06;5011636;28;20057;-79
2023/03/11 09:04:56;;;;;;;3.78;1.33;;;;;;;2.77;73.78;99210.38;5012517;28;20096;-79
2023/03/11 09:07:23;;;;;;;3.22;1.60;;;;;;;2.82;73.86;99200.69;5012658;28;20108;-79
2023/03/11 09:09:50;;;;;;;4.47;1.80;;;;;;;2.86;74.42;99203.13;5013373;28;20042;-79
2023/03/11 09:12:18;;;;;;;3.40;1.88;;;;;;;2.91;74.21;99205.56;5013287;28;20061;-80
2023/03/11 09:14:44;;;;;;;6.40;1.85;;;;;;;2.95;74.21;99196.75;5012812;28;20046;-79
2023/03/11 09:17:13;;;;;;;3.97;1.80;;;;;;;3.02;74.29;99215.59;5012658;28;20054;-79
2023/03/11 09:19:39;;;;;;;7.57;1.70;;;;;;;3.09;74.84;99200.63;5012629;28;20050;-79
2023/03/11 09:22:12;;;;;;;5.57;1.90;;;;;;;3.13;73.54;99208.28;5013201;28;20187;-79
2023/03/11 09:24:38;;;;;;;3.33;1.65;;;;;;;3.22;74.93;99207.06;5012487;28;20452;-79
2023/03/11 09:27:08;;;;;;;8.13;2.10;;;;;;;3.27;74.07;99204.31;5012165;28;20050;-78
2023/03/11 09:29:34;;;;;;;6.10;2.20;;;;;;;3.35;74.63;99198.84;5012775;28;20058;-79
2023/03/11 09:32:02;;;;;;;5.68;2.45;;;;;;;3.41;74.83;99198.63;5012626;28;20482;-80
2023/03/11 09:34:28;;;;;;;9.75;2.72;;;;;;;3.48;75.08;99197.47;5012796;28;20046;-79
2023/03/11 09:37:01;;;;;;;9.43;2.00;;;;;;;3.55;72.98;99197.28;5011807;28;20058;-78
2023/03/11 09:39:27;;;;;;;7.10;1.63;;;;;;;3.63;74.75;99201.28;5012525;28;20054;-78
2023/03/11 09:42:18;;;;;;;5.90;2.08;;;;;;;3.70;72.81;99201.06;5012691;28;20049;-79
2023/03/11 09:44:54;;;;;;;5.53;1.77;;;;;;;3.82;74.74;99212.75;5012377;28;20058;-79
2023/03/11 09:47:29;;;;;;;6.63;1.80;;;;;;;3.87;72.42;99209.06;5012519;28;20050;-78
2023/03/11 09:50:22;;;;;;;5.18;1.60;;;;;;;3.95;72.67;99207.91;5012868;28;20097;-78
2023/03/11 09:53:01;;;;;;;3.42;1.45;;;;;;;4.07;74.04;99209.22;5011424;28;20049;-79
2023/03/11 09:55:32;;;;;;;7.38;2.00;;;;;;;4.17;75.25;99218.34;5012201;28;20053;-79
2023/03/11 09:58:08;;;;;;;6.30;1.98;;;;;;;4.27;73.72;99224.06;5011825;28;20050;-78
2023/03/11 10:00:35;;;;;;;4.85;1.73;;;;;;;4.38;75.48;99226.25;5012378;28;20045;-79
2023/03/11 10:03:11;;;;;;;7.00;1.98;;;;;;;4.48;74.52;99230.16;5012199;28;20057;-76
2023/03/11 10:05:41;;;;;;;5.13;1.77;;;;;;;4.64;75.75;99234.78;5010699;28;20080;-78
2023/03/11 10:08:22;;;;;;;5.63;2.00;;;;;;;4.74;72.86;99233.47;5012148;28;20054;-79
2023/03/11 10:11:04;;;;;;;6.10;1.98;;;;;;;4.89;73.67;99239.81;5012356;28;20125;-76
2023/03/11 10:13:59;;;;;;;3.63;1.70;;;;;;;5.02;72.19;99247.97;5010972;28;20049;-79
2023/03/11 10:16:39;;;;;;;4.90;2.00;;;;;;;5.17;72.71;99241.25;5011827;28;20482;-76
2023/03/11 10:19:44;;;;;;;3.47;2.00;;;;;;;5.31;71.51;99240.63;5012108;28;20503;-76
2023/03/11 10:22:31;;;;;;;3.17;1.50;;;;;;;5.47;72.98;99246.03;5005224;28;20054;-79
2023/03/11 10:25:06;;;;;;;5.53;1.50;;;;;;;5.61;72.46;99236.75;5011724;28;20050;-76
2023/03/11 10:28:12;;;;;;;4.93;1.90;;;;;;;5.74;71.24;99239.66;5011931;28;20092;-76
2023/03/11 10:30:50;;;;;;;3.70;1.45;;;;;;;5.91;72.07;99248.50;5012013;28;20061;-76
2023/03/11 10:33:36;;;;;;;6.35;1.92;;;;;;;6.03;71.88;99247.06;5011667;28;20058;-79
2023/03/11 10:36:11;;;;;;;5.20;1.55;;;;;;;6.18;73.08;99258.59;5011430;28;20045;-76
2023/03/11 10:38:45;;;;;;;4.25;1.90;;;;;;;6.33;74.14;99255.28;5010727;28;20050;-78
2023/03/11 10:41:29;;;;;;;4.32;1.70;;;;;;;6.47;71.70;99256.38;5011750;28;20049;-78
2023/03/11 10:44:04;;;;;;;5.25;1.48;;;;;;;6.63;72.27;99252.09;5011581;28;20045;-78
2023/03/11 10:46:31;;;;;;;6.95;1.67;;;;;;;6.79;74.55;99261.78;5011513;28;20054;-77
2023/03/11 10:48:58;;;;;;;4.70;1.70;;;;;;;6.91;74.52;99261.19;5011478;28;20057;-76
2023/03/11 10:51:33;;;;;;;7.57;1.42;;;;;;;7.03;71.25;99264.13;5011717;28;20058;-78
2023/03/11 10:54:02;;;;;;;9.45;1.73;;;;;;;7.19;73.73;99264.19;5011817;28;20441;-79
2023/03/11 10:56:30;;;;;;;5.65;1.60;;;;;;;7.31;73.50;99265.34;5011090;28;20049;-78
2023/03/11 10:58:58;;;;;;;5.47;1.40;;;;;;;7.41;73.29;99269.16;5011086;28;20120;-78
2023/03/11 11:01:25;;;;;;;6.78;1.38;;;;;;;7.53;73.20;99266.84;4993584;28;20100;-78
2023/03/11 11:03:55;;;;;;;4.25;1.48;;;;;;;7.63;72.25;99268.03;5011226;28;20049;-78
2023/03/11 11:06:36;;;;;;;5.43;1.77;;;;;;;7.72;68.98;99271.94;5010957;28;20115;-78
2023/03/11 11:09:15;;;;;;;4.22;1.30;;;;;;;7.84;68.38;99274.84;5010952;28;20069;-78
2023/03/11 11:11:59;;;;;;;6.07;1.25;;;;;;;7.98;72.55;99274.09;5011111;28;20053;-78
2023/03/11 11:14:44;;;;;;;4.95;1.58;;;;;;;8.10;69.01;99275.22;5011069;28;20137;-78
2023/03/11 11:17:30;;;;;;;5.55;1.60;;;;;;;8.24;68.23;99277.06;5010810;28;20065;-78
2023/03/11 11:19:58;;;;;;;7.57;1.95;;;;;;;8.42;72.63;99276.06;5010761;28;20050;-78
2023/03/11 11:22:24;;;;;;;3.47;1.55;;;;;;;8.56;72.52;99271.84;5010756;28;20557;-79
2023/03/11 11:24:54;;;;;;;7.78;2.20;;;;;;;8.68;71.00;99268.50;5010412;28;20105;-78
2023/03/11 11:27:26;;;;;;;4.55;1.92;;;;;;;8.86;72.52;99273.66;5010754;28;20056;-78
2023/03/11 11:30:13;;;;;;;6.45;2.28;;;;;;;9.10;71.06;99262.66;4993577;28;20049;-78
2023/03/11 11:32:41;;;;;;;2.80;1.45;;;;;;;9.49;77.40;99260.34;5010431;28;20050;-78
2023/03/11 11:35:13;;;;;;;8.27;1.85;;;;;;;9.94;75.94;99262.03;5009304;28;20062;-78
2023/03/11 11:37:47;;;;;;;2.83;1.67;;;;;;;10.57;76.96;99261.66;5010412;28;20230;-79
2023/03/11 11:40:20;;;;;;;6.07;1.80;;;;;;;11.32;80.76;99263.69;5010432;28;20107;-78
2023/03/11 11:43:18;;;;;;;7.47;1.63;;;;;;;12.17;74.16;99256.13;5010294;28;20053;-77
2023/03/11 11:45:52;;;;;;;4.20;1.27;;;;;;;13.12;77.99;99254.47;5010196;28;20092;-77
2023/03/11 11:48:25;;;;;;;6.05;1.50;;;;;;;13.97;71.95;99256.03;5010653;28;20080;-76
2023/03/11 11:50:58;;;;;;;5.88;1.20;;;;;;;14.70;65.38;99250.19;5010844;28;20050;-77
2023/03/11 11:53:40;;;;;;;2.72;1.27;;;;;;;15.38;63.51;99254.28;4993118;28;20046;-77
2023/03/11 11:56:06;;;;;;;8.70;1.73;;;;;;;15.96;66.07;99250.22;5010407;28;20054;-77